Kamloops, British Columbia

1:56 PM PST on February 22, 2017 (GMT -0800)
Kamloops | | Change Station

Elev 1135 ft 50.70 °N, 120.45 °W | Updated 56 minutes ago

Scattered Clouds
Scattered Clouds
41 °F
Feels Like 41 °F
N
2
Wind Variable Wind from West

Today
High -- | Low -- °F
--% Chance of Precip.
Yesterday
High -- | Low -- °F
Precip. -- in
Pressure 30.16 in
Visibility 40.0 miles
Clouds Scattered Clouds 7000 ft
Dew Point 21 °F
Humidity 45%
Rainfall 0.00 in
Snow Depth Not available.
6:59 AM 5:31 PM
Waning Crescent, 15% visible
METAR CYKA 222100Z 28002KT 40SM SCT070 05/M06 A3010 RMK CU3 SLP212
Pressure 30.16 in
Visibility 40.0 miles
Clouds Scattered Clouds 7000 ft
Dew Point 21 °F
Humidity 45%
Rainfall 0.00 in
Snow Depth Not available.
6:59 AM 5:31 PM
Waning Crescent, 15% visible
METAR CYKA 222100Z 28002KT 40SM SCT070 05/M06 A3010 RMK CU3 SLP212

Get Your Daily Forecast Email!

Thanks for signing up!

Be on the lookout for a verification email in your inbox.

You'll start receiving the daily forecast at 8 AM.

×

10-Day Weather Forecast

Almanac

Astronomy

Feb. 22, 2017 Rise Set
Actual Time
Civil Twilight
Nautical Twilight
Astronomical Twilight
Moon
Length of Visible Light
Length of Day
Tomorrow will be .
, % of the Moon is Illuminated

Today's Extremes

Country Highs Country Lows

Community

WunderPhotos

Upload Photos

1,962,540 photos uploaded!

WunderBlog® & News

Nearby

Air Quality

  Air Quality AQ Index Pollutant
Not available.

Snow Depth

Station Depth Elevation

Earthquake Activity

City Distance Mag. Time & Date
Minimum magnitude displayed is 2.5.

Coastal Water Temperatures

Place Temperature

Stations

Nearby Weather Stations

Station Location Temp. Windchill Dew Point Humidity Wind Precip. Elev Updated Type
                   

Watches & Warnings

There are currently no watches in effect.